createdAt,value
2022-09-30T00:00:00.167Z,100
2022-09-30T00:05:00.356Z,100
2022-09-30T00:10:00.201Z,100
2022-09-30T00:15:00.196Z,100
2022-09-30T00:20:00.222Z,100
2022-09-30T00:25:00.193Z,100
2022-09-30T00:30:00.206Z,100
2022-09-30T00:35:00.209Z,100
2022-09-30T00:40:00.263Z,100
2022-09-30T00:45:00.160Z,100
2022-09-30T00:50:00.200Z,100
2022-09-30T00:55:00.457Z,100
2022-09-30T01:00:00.224Z,100
2022-09-30T01:05:00.158Z,100
2022-09-30T01:10:00.522Z,100
2022-09-30T01:15:00.160Z,100
2022-09-30T01:20:00.237Z,100
2022-09-30T01:25:00.200Z,100
2022-09-30T01:30:00.186Z,100
2022-09-30T01:35:00.216Z,100
2022-09-30T01:40:00.350Z,100
2022-09-30T01:45:00.155Z,100
2022-09-30T01:50:00.210Z,100
2022-09-30T01:55:00.361Z,100
2022-09-30T02:00:00.169Z,100
2022-09-30T02:05:00.198Z,100
2022-09-30T02:10:00.207Z,100
2022-09-30T02:15:00.203Z,100
2022-09-30T02:20:00.196Z,100
2022-09-30T02:25:00.193Z,100
2022-09-30T02:30:00.183Z,100
2022-09-30T02:35:00.176Z,100
2022-09-30T02:40:00.377Z,100
2022-09-30T02:45:00.155Z,100
2022-09-30T02:50:00.190Z,100
2022-09-30T02:55:00.233Z,100
2022-09-30T03:00:03.193Z,100
2022-09-30T03:05:00.340Z,100
2022-09-30T03:10:00.214Z,100
2022-09-30T03:15:00.181Z,100
2022-09-30T03:20:00.176Z,100
2022-09-30T03:25:00.364Z,100
2022-09-30T03:30:00.201Z,100
2022-09-30T03:35:00.189Z,100
2022-09-30T03:40:00.214Z,100
2022-09-30T03:45:00.179Z,100
2022-09-30T03:50:00.211Z,100
2022-09-30T03:55:00.184Z,100
2022-09-30T04:00:00.287Z,100
2022-09-30T04:05:00.162Z,100
2022-09-30T04:10:00.242Z,100
2022-09-30T04:15:00.179Z,100
2022-09-30T04:20:00.209Z,100
2022-09-30T04:25:00.152Z,100
2022-09-30T04:30:00.233Z,100
2022-09-30T04:35:00.161Z,100
2022-09-30T04:40:00.211Z,100
2022-09-30T04:45:00.365Z,100
2022-09-30T04:50:00.203Z,100
2022-09-30T04:55:00.182Z,100
2022-09-30T05:00:00.172Z,100
2022-09-30T05:05:00.189Z,100
2022-09-30T05:10:00.168Z,100
2022-09-30T05:15:00.174Z,100
2022-09-30T05:20:00.193Z,100
2022-09-30T05:25:00.180Z,100
2022-09-30T05:30:00.166Z,100
2022-09-30T05:35:00.199Z,100
2022-09-30T05:40:00.161Z,100
2022-09-30T05:45:00.202Z,100
2022-09-30T05:50:00.320Z,100
2022-09-30T05:55:00.182Z,100
2022-09-30T06:00:00.215Z,100
2022-09-30T06:05:00.350Z,100
2022-09-30T06:10:00.198Z,100
2022-09-30T06:15:00.175Z,100
2022-09-30T06:20:00.190Z,100
2022-09-30T06:25:00.182Z,100
2022-09-30T06:30:00.169Z,100
2022-09-30T06:35:00.209Z,100
2022-09-30T06:40:00.198Z,100
2022-09-30T06:45:00.211Z,100
2022-09-30T06:50:00.248Z,100
2022-09-30T06:55:00.191Z,100
2022-09-30T07:00:00.201Z,100
2022-09-30T07:05:00.184Z,100
2022-09-30T07:10:00.196Z,100
2022-09-30T07:15:00.177Z,100
2022-09-30T07:20:00.204Z,100
2022-09-30T07:25:00.200Z,100
2022-09-30T07:30:10.746Z,100
2022-09-30T07:35:00.159Z,100
2022-09-30T07:40:00.213Z,100
2022-09-30T07:45:00.164Z,100
2022-09-30T07:50:00.206Z,100
2022-09-30T07:55:00.201Z,100
2022-09-30T08:00:11.737Z,100
2022-09-30T08:05:00.151Z,100
2022-09-30T08:10:00.309Z,100
2022-09-30T08:15:00.171Z,100
2022-09-30T08:20:00.210Z,100
2022-09-30T08:25:00.186Z,99
2022-09-30T08:30:04.263Z,98
2022-09-30T08:35:00.161Z,94
2022-09-30T08:40:00.202Z,100
2022-09-30T08:45:00.171Z,97
2022-09-30T08:50:00.203Z,95
2022-09-30T08:55:00.171Z,94
2022-09-30T09:00:00.187Z,94
2022-09-30T09:05:00.224Z,97
2022-09-30T09:10:00.370Z,100
2022-09-30T09:15:00.152Z,95
2022-09-30T09:20:00.221Z,97
2022-09-30T09:25:00.173Z,94
2022-09-30T09:30:00.245Z,93
2022-09-30T09:35:00.171Z,95
2022-09-30T09:40:03.779Z,96
2022-09-30T09:45:00.179Z,100
2022-09-30T09:50:00.192Z,100
2022-09-30T09:55:00.199Z,100
2022-09-30T10:05:00.283Z,100
2022-09-30T10:10:00.179Z,100
2022-09-30T10:15:00.181Z,100
2022-09-30T10:20:00.176Z,100
2022-09-30T10:25:00.180Z,100
2022-09-30T10:30:00.205Z,100
2022-09-30T10:35:00.191Z,100
2022-09-30T10:40:00.185Z,100
2022-09-30T10:45:00.176Z,100
2022-09-30T10:50:00.191Z,100
2022-09-30T10:55:00.373Z,99
2022-09-30T11:00:00.171Z,99
2022-09-30T11:05:00.202Z,98
2022-09-30T11:10:00.203Z,98
2022-09-30T11:15:00.346Z,98
2022-09-30T11:20:00.163Z,98
2022-09-30T11:25:00.186Z,98
2022-09-30T11:30:00.180Z,98
2022-09-30T11:35:00.157Z,99
2022-09-30T11:40:00.198Z,100
2022-09-30T11:45:00.147Z,100
2022-09-30T11:50:00.207Z,100
2022-09-30T11:55:00.173Z,100
2022-09-30T12:00:00.203Z,100
2022-09-30T12:05:00.246Z,99
2022-09-30T12:10:00.202Z,99
2022-09-30T12:15:00.208Z,99
2022-09-30T12:20:00.178Z,98
2022-09-30T12:25:00.347Z,97
2022-09-30T12:30:00.222Z,96
2022-09-30T12:35:00.198Z,96
2022-09-30T12:40:00.191Z,96
2022-09-30T12:45:00.161Z,96
2022-09-30T12:50:00.194Z,96
2022-09-30T12:55:00.219Z,96
2022-09-30T13:00:00.221Z,95
2022-09-30T13:05:00.190Z,95
2022-09-30T13:10:00.257Z,94
2022-09-30T13:15:00.183Z,94
2022-09-30T13:20:00.183Z,94
2022-09-30T13:25:00.199Z,95
2022-09-30T13:30:00.168Z,94
2022-09-30T13:35:00.186Z,94
2022-09-30T13:40:00.227Z,93
2022-09-30T13:45:00.196Z,93
2022-09-30T13:50:00.193Z,93
2022-09-30T13:55:00.183Z,92
2022-09-30T14:00:00.251Z,93
2022-09-30T14:05:00.231Z,93
2022-09-30T14:10:00.191Z,93
2022-09-30T14:15:00.182Z,93
2022-09-30T14:20:00.160Z,93
2022-09-30T14:25:00.204Z,93
2022-09-30T14:30:00.202Z,93
2022-09-30T14:35:00.190Z,92
2022-09-30T14:40:00.199Z,92
2022-09-30T14:45:00.177Z,92
2022-09-30T14:50:00.181Z,93
2022-09-30T14:55:00.346Z,93
2022-09-30T15:00:00.179Z,93
2022-09-30T15:05:01.563Z,93
2022-09-30T15:10:00.194Z,93
2022-09-30T15:15:00.198Z,94
2022-09-30T15:20:00.167Z,94
2022-09-30T15:25:00.228Z,98
2022-09-30T15:30:00.179Z,94
2022-09-30T15:35:00.193Z,95
2022-09-30T15:40:00.200Z,95
2022-09-30T15:45:00.195Z,95
2022-09-30T15:50:00.172Z,95
2022-09-30T15:55:00.195Z,96
2022-09-30T16:00:00.231Z,98
2022-09-30T16:05:00.188Z,96
2022-09-30T16:10:00.213Z,96
2022-09-30T16:15:00.190Z,96
2022-09-30T16:20:00.183Z,97
2022-09-30T16:25:00.271Z,97
2022-09-30T16:30:00.223Z,97
2022-09-30T16:35:00.192Z,98
2022-09-30T16:40:00.296Z,98
2022-09-30T16:45:00.183Z,100
2022-09-30T16:50:00.198Z,100
2022-09-30T16:55:00.194Z,100
2022-09-30T17:00:00.345Z,100
2022-09-30T17:05:00.187Z,100
2022-09-30T17:10:00.273Z,100
2022-09-30T17:15:00.178Z,100
2022-09-30T17:20:00.262Z,100
2022-09-30T17:25:00.200Z,100
2022-09-30T17:30:00.197Z,100
2022-09-30T17:35:00.187Z,100
2022-09-30T17:40:00.220Z,100
2022-09-30T17:45:00.199Z,100
2022-09-30T17:50:00.182Z,100
2022-09-30T18:00:00.213Z,100
2022-09-30T18:05:00.195Z,100
2022-09-30T18:10:00.212Z,100
2022-09-30T18:15:00.159Z,100
2022-09-30T18:20:00.216Z,100
2022-09-30T18:25:00.196Z,100
2022-09-30T18:30:00.236Z,100
2022-09-30T18:35:00.156Z,100
2022-09-30T18:40:00.205Z,100
2022-09-30T18:45:00.151Z,100
2022-09-30T18:50:00.231Z,100
2022-09-30T18:55:00.211Z,100
2022-09-30T19:00:00.210Z,100
2022-09-30T19:05:00.322Z,100
2022-09-30T19:10:00.210Z,100
2022-09-30T19:15:00.179Z,100
2022-09-30T19:20:00.176Z,100
2022-09-30T19:25:00.194Z,100
2022-09-30T19:30:00.190Z,100
2022-09-30T19:35:06.109Z,100
2022-09-30T19:40:08.879Z,100
2022-09-30T19:45:00.184Z,100
2022-09-30T19:50:00.209Z,100
2022-09-30T19:55:11.732Z,100
2022-09-30T20:00:04.250Z,100
2022-09-30T20:05:00.194Z,100
2022-09-30T20:10:00.154Z,100
2022-09-30T20:15:00.181Z,100
2022-09-30T20:20:00.155Z,100
2022-09-30T20:25:00.188Z,100
2022-09-30T20:30:00.359Z,100
2022-09-30T20:35:00.200Z,100
2022-09-30T20:40:00.164Z,100
2022-09-30T20:45:00.192Z,100
2022-09-30T20:50:00.199Z,100
2022-09-30T20:55:00.530Z,100
2022-09-30T21:00:00.392Z,100
2022-09-30T21:05:00.188Z,100
2022-09-30T21:10:00.181Z,100
2022-09-30T21:15:00.202Z,100
2022-09-30T21:20:00.175Z,100
2022-09-30T21:25:00.197Z,100
2022-09-30T21:30:00.203Z,100
2022-09-30T21:35:00.189Z,100
2022-09-30T21:40:00.170Z,100
2022-09-30T21:45:00.204Z,100
2022-09-30T21:50:00.198Z,100
2022-09-30T21:55:00.359Z,100
2022-09-30T22:00:00.216Z,100
2022-09-30T22:05:00.183Z,100
2022-09-30T22:10:00.172Z,100
2022-09-30T22:15:00.355Z,100
2022-09-30T22:20:00.219Z,100
2022-09-30T22:25:00.181Z,100
2022-09-30T22:30:00.192Z,100
2022-09-30T22:35:00.211Z,100
2022-09-30T22:40:01.252Z,100
2022-09-30T22:45:00.203Z,100
2022-09-30T22:50:00.203Z,100
2022-09-30T22:55:00.194Z,100
2022-09-30T23:00:00.163Z,100
2022-09-30T23:05:00.348Z,100
2022-09-30T23:10:00.172Z,100
2022-09-30T23:15:00.183Z,100
2022-09-30T23:20:00.199Z,100
2022-09-30T23:25:00.201Z,100
2022-09-30T23:30:00.197Z,100
2022-09-30T23:35:00.227Z,100
2022-09-30T23:40:00.220Z,100
2022-09-30T23:45:00.224Z,100
2022-09-30T23:50:00.176Z,100
2022-09-30T23:55:00.357Z,100
